Time,TemperatureF,DewpointF,PressureIn,WindDirection,WindDirectionDegrees,WindSpeedMPH,WindSpeedGustMPH,Humidity,HourlyPrecipIn,Conditions,Clouds,dailyrainin,SoftwareType,DateUTC
2013-02-04 00:01:00,34.2,23.7,30.00,NW,309,5.8,5.8,65,0.00,FEW,,0.00,WeatherDisplay:10.37,2013-02-04 05:01:00,
2013-02-04 00:02:00,34.2,23.7,30.00,NW,309,5.8,5.8,65,0.00,FEW,,0.00,WeatherDisplay:10.37,2013-02-04 05:02:00,
2013-02-04 00:03:00,34.2,23.7,30.00,NW,311,5.8,5.8,65,0.00,FEW,,0.00,WeatherDisplay:10.37,2013-02-04 05:03:00,
2013-02-04 00:08:00,34.2,23.3,30.00,NW,312,3.5,3.5,64,0.00,FEW,,0.00,WeatherDisplay:10.37,2013-02-04 05:08:00,
2013-02-04 00:13:00,34.1,23.6,30.01,NW,319,4.0,4.0,65,0.00,FEW,,0.00,WeatherDisplay:10.37,2013-02-04 05:13:00,
2013-02-04 00:18:00,33.9,23.4,30.01,NNW,327,3.5,3.5,65,0.00,FEW,,0.00,WeatherDisplay:10.37,2013-02-04 05:18:00,
2013-02-04 00:23:00,33.7,23.2,30.01,NW,311,3.5,3.5,65,0.00,FEW,,0.00,WeatherDisplay:10.37,2013-02-04 05:23:00,
2013-02-04 00:28:00,33.6,23.1,30.01,WNW,302,4.6,4.6,65,0.00,FEW,,0.00,WeatherDisplay:10.37,2013-02-04 05:28:00,
2013-02-04 00:33:00,33.5,23.0,30.01,NNW,346,6.0,6.0,65,0.00,FEW,,0.00,WeatherDisplay:10.37,2013-02-04 05:33:00,
2013-02-04 00:38:00,33.4,22.9,30.01,NW,309,9.2,9.2,65,0.00,FEW,,0.00,WeatherDisplay:10.37,2013-02-04 05:38:00,
2013-02-04 00:43:00,33.4,22.5,30.01,WNW,302,2.3,2.3,64,0.00,FEW,,0.00,WeatherDisplay:10.37,2013-02-04 05:43:00,
2013-02-04 00:48:00,33.2,22.7,30.01,WNW,296,4.6,4.6,65,0.00,FEW,,0.00,WeatherDisplay:10.37,2013-02-04 05:48:00,
2013-02-04 00:53:00,33.0,22.5,30.01,WNW,299,2.0,2.0,65,0.00,FEW,,0.00,WeatherDisplay:10.37,2013-02-04 05:53:00,
2013-02-04 00:58:00,32.5,22.0,30.01,NW,305,3.5,3.5,65,0.00,FEW,,0.00,WeatherDisplay:10.37,2013-02-04 05:58:00,
2013-02-04 01:03:00,31.9,22.2,30.02,North,350,3.5,3.5,67,0.00,CLR,,0.00,WeatherDisplay:10.37,2013-02-04 06:03:00,
2013-02-04 01:08:00,31.8,22.1,30.02,NNW,337,3.5,3.5,67,0.00,CLR,,0.00,WeatherDisplay:10.37,2013-02-04 06:08:00,
2013-02-04 01:13:00,31.6,21.9,30.02,WNW,303,4.0,4.0,67,0.00,CLR,,0.00,WeatherDisplay:10.37,2013-02-04 06:13:00,
2013-02-04 01:18:00,31.4,22.1,30.02,WNW,303,0.0,0.0,68,0.00,CLR,,0.00,WeatherDisplay:10.37,2013-02-04 06:18:00,
2013-02-04 01:23:00,31.2,22.2,30.02,NW,304,0.0,0.0,69,0.00,CLR,,0.00,WeatherDisplay:10.37,2013-02-04 06:23:00,
2013-02-04 01:28:00,30.9,22.3,30.02,NW,326,4.0,4.0,70,0.00,CLR,,0.00,WeatherDisplay:10.37,2013-02-04 06:28:00,
2013-02-04 01:33:00,30.8,22.2,30.02,NW,322,3.5,3.5,70,0.00,CLR,,0.00,WeatherDisplay:10.37,2013-02-04 06:33:00,
2013-02-04 01:38:00,30.8,22.2,30.02,NW,323,0.0,0.0,70,0.00,CLR,,0.00,WeatherDisplay:10.37,2013-02-04 06:38:00,
2013-02-04 01:43:00,30.5,21.9,30.02,NW,322,1.0,1.0,70,0.00,CLR,,0.00,WeatherDisplay:10.37,2013-02-04 06:43:00,
2013-02-04 01:48:00,30.3,22.0,30.02,NW,322,1.1,1.1,71,0.00,CLR,,0.00,WeatherDisplay:10.37,2013-02-04 06:48:00,
2013-02-04 01:53:00,29.9,22.0,30.02,NW,322,0.0,0.0,72,0.00,CLR,,0.00,WeatherDisplay:10.37,2013-02-04 06:53:00,
2013-02-04 01:58:00,29.6,22.0,30.02,NW,321,3.0,3.0,73,0.00,CLR,,0.00,WeatherDisplay:10.37,2013-02-04 06:58:00,
2013-02-04 02:03:00,29.8,22.2,30.02,NW,321,3.5,3.5,73,0.00,CLR,,0.00,WeatherDisplay:10.37,2013-02-04 07:03:00,
2013-02-04 02:08:00,29.7,21.8,30.02,NW,321,0.0,0.0,72,0.00,CLR,,0.00,WeatherDisplay:10.37,2013-02-04 07:08:00,
2013-02-04 02:14:00,29.4,21.8,30.03,NW,315,1.0,0.0,73,0.00,CLR,,0.00,WeatherDisplay:10.37,2013-02-04 07:14:00,
2013-02-04 02:19:00,29.5,21.9,30.03,NW,315,0.0,0.0,73,0.00,CLR,,0.00,WeatherDisplay:10.37,2013-02-04 07:19:00,
2013-02-04 02:24:00,29.5,21.9,30.03,NW,314,0.0,0.0,73,0.00,CLR,,0.00,WeatherDisplay:10.37,2013-02-04 07:24:00,
2013-02-04 02:29:00,29.4,21.8,30.03,NW,314,0.0,0.0,73,0.00,CLR,,0.00,WeatherDisplay:10.37,2013-02-04 07:29:00,
2013-02-04 02:34:00,29.1,22.2,30.03,NW,316,1.1,0.0,75,0.00,CLR,,0.00,WeatherDisplay:10.37,2013-02-04 07:34:00,
2013-02-04 02:39:00,29.2,22.3,30.03,NNW,333,1.1,1.1,75,0.00,CLR,,0.00,WeatherDisplay:10.37,2013-02-04 07:39:00,
2013-02-04 02:44:00,29.4,22.5,30.03,NNW,333,1.0,1.0,75,0.00,CLR,,0.00,WeatherDisplay:10.37,2013-02-04 07:44:00,
2013-02-04 02:49:00,29.6,22.0,30.03,NNW,333,0.0,0.0,73,0.00,CLR,,0.00,WeatherDisplay:10.37,2013-02-04 07:49:00,
2013-02-04 02:54:00,30.2,21.9,30.03,NW,317,3.5,3.5,71,0.00,CLR,,0.00,WeatherDisplay:10.37,2013-02-04 07:54:00,
2013-02-04 02:59:00,30.5,21.9,30.03,NW,311,0.0,0.0,70,0.00,CLR,,0.00,WeatherDisplay:10.37,2013-02-04 07:59:00,
2013-02-04 03:04:00,30.6,21.6,30.04,NW,315,1.1,1.1,69,0.00,FEW,,0.00,WeatherDisplay:10.37,2013-02-04 08:04:00,
2013-02-04 03:09:00,30.4,21.4,30.04,NNW,329,2.3,0.0,69,0.00,FEW,,0.00,WeatherDisplay:10.37,2013-02-04 08:09:00,
2013-02-04 03:14:00,30.3,21.3,30.04,NNW,329,0.0,0.0,69,0.00,FEW,,0.00,WeatherDisplay:10.37,2013-02-04 08:14:00,
2013-02-04 03:19:00,30.0,21.1,30.05,NNW,329,0.0,0.0,69,0.00,FEW,,0.00,WeatherDisplay:10.37,2013-02-04 08:19:00,
2013-02-04 03:24:00,29.8,20.9,30.04,NW,326,2.0,2.0,69,0.00,FEW,,0.00,WeatherDisplay:10.37,2013-02-04 08:24:00,
2013-02-04 03:29:00,29.8,21.2,30.05,NW,306,3.5,3.5,70,0.00,FEW,,0.00,WeatherDisplay:10.37,2013-02-04 08:29:00,
2013-02-04 03:35:00,29.8,21.2,30.04,NW,315,4.6,4.6,70,0.00,FEW,,0.00,WeatherDisplay:10.37,2013-02-04 08:35:00,
2013-02-04 03:40:00,29.9,21.3,30.04,WNW,302,3.5,3.5,70,0.00,FEW,,0.00,WeatherDisplay:10.37,2013-02-04 08:40:00,
2013-02-04 03:45:00,30.0,21.4,30.05,WNW,302,1.1,0.0,70,0.00,FEW,,0.00,WeatherDisplay:10.37,2013-02-04 08:45:00,
2013-02-04 03:50:00,29.6,20.7,30.04,NW,304,2.0,2.0,69,0.00,FEW,,0.00,WeatherDisplay:10.37,2013-02-04 08:50:00,
2013-02-04 03:55:00,29.0,21.1,30.05,NW,311,0.0,0.0,72,0.00,FEW,,0.00,WeatherDisplay:10.37,2013-02-04 08:55:00,
2013-02-04 04:00:00,28.5,20.9,30.05,NW,310,0.0,0.0,73,0.00,FEW,,0.00,WeatherDisplay:10.37,2013-02-04 09:00:00,
2013-02-04 04:05:00,28.2,21.3,30.05,NW,311,0.0,0.0,75,0.00,FEW,,0.00,WeatherDisplay:10.37,2013-02-04 09:05:00,
2013-02-04 04:10:00,27.5,20.9,30.06,NW,311,0.0,0.0,76,0.00,FEW,,0.00,WeatherDisplay:10.37,2013-02-04 09:10:00,
2013-02-04 04:15:00,27.2,20.9,30.06,NW,311,0.0,0.0,77,0.00,FEW,,0.00,WeatherDisplay:10.37,2013-02-04 09:15:00,
2013-02-04 04:20:00,27.0,21.4,30.07,NW,310,0.0,0.0,79,0.00,FEW,,0.00,WeatherDisplay:10.37,2013-02-04 09:20:00,
2013-02-04 04:25:00,27.0,21.4,30.07,NW,311,0.0,0.0,79,0.00,FEW,,0.00,WeatherDisplay:10.37,2013-02-04 09:25:00,
2013-02-04 04:30:00,26.7,21.4,30.07,NW,310,0.0,0.0,80,0.00,FEW,,0.00,WeatherDisplay:10.37,2013-02-04 09:30:00,
2013-02-04 04:35:00,26.8,21.2,30.06,NW,311,0.0,0.0,79,0.00,FEW,,0.00,WeatherDisplay:10.37,2013-02-04 09:35:00,
2013-02-04 04:40:00,27.0,21.4,30.07,NW,311,0.0,0.0,79,0.00,FEW,,0.00,WeatherDisplay:10.37,2013-02-04 09:40:00,
2013-02-04 04:45:00,27.1,21.5,30.07,NW,311,0.0,0.0,79,0.00,FEW,,0.00,WeatherDisplay:10.37,2013-02-04 09:45:00,
2013-02-04 04:50:00,27.2,21.2,30.07,NW,310,0.0,0.0,78,0.00,FEW,,0.00,WeatherDisplay:10.37,2013-02-04 09:50:00,
2013-02-04 04:55:00,26.8,21.2,30.07,NW,311,0.0,0.0,79,0.00,FEW,,0.00,WeatherDisplay:10.37,2013-02-04 09:55:00,
2013-02-04 05:00:00,26.4,21.4,30.07,NW,311,0.0,0.0,81,0.00,FEW,,0.00,WeatherDisplay:10.37,2013-02-04 10:00:00,
2013-02-04 05:05:00,26.2,21.2,30.07,NW,310,0.0,0.0,81,0.00,FEW,,0.00,WeatherDisplay:10.37,2013-02-04 10:05:00,
2013-02-04 05:10:00,26.3,21.3,30.08,NW,311,0.0,0.0,81,0.00,FEW,,0.00,WeatherDisplay:10.37,2013-02-04 10:10:00,
2013-02-04 05:15:00,26.2,21.2,30.07,NW,311,0.0,0.0,81,0.00,FEW,,0.00,WeatherDisplay:10.37,2013-02-04 10:15:00,
2013-02-04 05:20:00,25.8,20.8,30.08,NW,311,0.0,0.0,81,0.00,FEW,,0.00,WeatherDisplay:10.37,2013-02-04 10:20:00,
2013-02-04 05:25:00,25.5,20.8,30.08,NW,311,0.0,0.0,82,0.00,FEW,,0.00,WeatherDisplay:10.37,2013-02-04 10:25:00,
2013-02-04 05:30:00,25.2,21.0,30.08,NW,311,0.0,0.0,84,0.00,FEW,,0.00,WeatherDisplay:10.37,2013-02-04 10:30:00,
2013-02-04 05:36:00,25.1,20.9,30.08,NW,310,0.0,0.0,84,0.00,FEW,,0.00,WeatherDisplay:10.37,2013-02-04 10:36:00,
2013-02-04 05:41:00,25.2,21.3,30.08,NW,311,0.0,0.0,85,0.00,FEW,,0.00,WeatherDisplay:10.37,2013-02-04 10:41:00,
2013-02-04 05:46:00,25.2,21.3,30.08,NW,310,0.0,0.0,85,0.00,FEW,,0.00,WeatherDisplay:10.37,2013-02-04 10:46:00,
2013-02-04 05:51:00,25.1,21.2,30.08,NW,311,0.0,0.0,85,0.00,FEW,,0.00,WeatherDisplay:10.37,2013-02-04 10:51:00,
2013-02-04 05:56:00,25.0,21.1,30.08,NW,310,0.0,0.0,85,0.00,FEW,,0.00,WeatherDisplay:10.37,2013-02-04 10:56:00,
2013-02-04 06:01:00,24.8,20.9,30.09,NW,311,0.0,0.0,85,0.00,SCT,,0.00,WeatherDisplay:10.37,2013-02-04 11:01:00,
2013-02-04 06:06:00,24.7,21.1,30.08,NW,311,0.0,0.0,86,0.00,SCT,,0.00,WeatherDisplay:10.37,2013-02-04 11:06:00,
2013-02-04 06:11:00,24.6,21.0,30.08,NW,310,0.0,0.0,86,0.00,SCT,,0.00,WeatherDisplay:10.37,2013-02-04 11:11:00,
2013-02-04 06:16:00,24.8,21.5,30.09,NW,310,0.0,0.0,87,0.00,SCT,,0.00,WeatherDisplay:10.37,2013-02-04 11:16:00,
2013-02-04 06:21:00,25.0,21.4,30.09,NW,311,0.0,0.0,86,0.00,SCT,,0.00,WeatherDisplay:10.37,2013-02-04 11:21:00,
2013-02-04 06:27:00,25.0,21.7,30.10,NW,311,0.0,0.0,87,0.00,SCT,,0.00,WeatherDisplay:10.37,2013-02-04 11:27:00,
2013-02-04 06:32:00,24.9,21.6,30.10,NW,311,0.0,0.0,87,0.00,SCT,,0.00,WeatherDisplay:10.37,2013-02-04 11:32:00,
2013-02-04 06:37:00,24.8,21.5,30.10,NW,311,0.0,0.0,87,0.00,SCT,,0.00,WeatherDisplay:10.37,2013-02-04 11:37:00,
2013-02-04 06:42:00,24.9,21.6,30.10,NW,310,0.0,0.0,87,0.00,SCT,,0.00,WeatherDisplay:10.37,2013-02-04 11:42:00,
2013-02-04 06:47:00,25.0,21.9,30.11,NW,310,0.0,0.0,88,0.00,SCT,,0.00,WeatherDisplay:10.37,2013-02-04 11:47:00,
2013-02-04 06:52:00,25.0,21.9,30.11,NW,311,0.0,0.0,88,0.00,SCT,,0.00,WeatherDisplay:10.37,2013-02-04 11:52:00,
2013-02-04 06:57:00,25.0,21.9,30.12,NW,311,0.0,0.0,88,0.00,SCT,,0.00,WeatherDisplay:10.37,2013-02-04 11:57:00,
2013-02-04 07:02:00,24.9,21.8,30.12,NW,310,0.0,0.0,88,0.00,BKN,,0.00,WeatherDisplay:10.37,2013-02-04 12:02:00,
2013-02-04 07:07:00,25.0,21.9,30.13,NW,311,0.0,0.0,88,0.00,BKN,,0.00,WeatherDisplay:10.37,2013-02-04 12:07:00,
2013-02-04 07:12:00,25.4,22.3,30.13,NW,311,0.0,0.0,88,0.00,BKN,,0.00,WeatherDisplay:10.37,2013-02-04 12:12:00,
2013-02-04 07:17:00,25.8,22.5,30.13,NW,311,0.0,0.0,87,0.00,BKN,,0.00,WeatherDisplay:10.37,2013-02-04 12:17:00,
2013-02-04 07:22:00,25.8,22.5,30.12,NW,310,0.0,0.0,87,0.00,BKN,,0.00,WeatherDisplay:10.37,2013-02-04 12:22:00,
2013-02-04 07:27:00,25.6,22.3,30.12,NW,311,0.0,0.0,87,0.00,BKN,,0.00,WeatherDisplay:10.37,2013-02-04 12:27:00,
2013-02-04 07:32:00,25.9,22.6,30.12,NW,311,0.0,0.0,87,0.00,BKN,,0.00,WeatherDisplay:10.37,2013-02-04 12:32:00,
2013-02-04 07:37:00,26.4,23.1,30.12,NW,310,0.0,0.0,87,0.00,BKN,,0.00,WeatherDisplay:10.37,2013-02-04 12:37:00,
2013-02-04 07:42:00,26.6,23.3,30.12,NW,311,0.0,0.0,87,0.00,BKN,,0.00,WeatherDisplay:10.37,2013-02-04 12:42:00,
2013-02-04 07:47:00,26.9,23.5,30.12,NW,311,0.0,0.0,87,0.00,BKN,,0.00,WeatherDisplay:10.37,2013-02-04 12:47:00,
2013-02-04 07:52:00,27.1,23.7,30.13,NW,311,0.0,0.0,87,0.00,BKN,,0.00,WeatherDisplay:10.37,2013-02-04 12:52:00,
2013-02-04 07:57:00,27.3,23.9,30.13,NW,310,0.0,0.0,87,0.00,BKN,,0.00,WeatherDisplay:10.37,2013-02-04 12:57:00,
2013-02-04 08:02:00,27.6,24.2,30.13,NW,311,0.0,0.0,87,0.00,BKN,,0.00,WeatherDisplay:10.37,2013-02-04 13:02:00,
2013-02-04 08:07:00,28.3,24.9,30.14,NW,311,0.0,0.0,87,0.00,BKN,,0.00,WeatherDisplay:10.37,2013-02-04 13:07:00,
2013-02-04 08:12:00,29.3,25.9,30.13,SE,140,0.0,0.0,87,0.00,BKN,,0.00,WeatherDisplay:10.37,2013-02-04 13:12:00,
2013-02-04 08:17:00,29.5,25.5,30.14,SE,140,0.0,0.0,85,0.00,BKN,,0.00,WeatherDisplay:10.37,2013-02-04 13:17:00,
2013-02-04 08:22:00,29.8,25.8,30.14,SE,140,0.0,0.0,85,0.00,BKN,,0.00,WeatherDisplay:10.37,2013-02-04 13:22:00,
2013-02-04 08:27:00,30.0,26.0,30.14,SE,140,0.0,0.0,85,0.00,BKN,,0.00,WeatherDisplay:10.37,2013-02-04 13:27:00,
2013-02-04 08:32:00,30.5,26.2,30.14,SE,140,0.0,0.0,84,0.00,BKN,,0.00,WeatherDisplay:10.37,2013-02-04 13:32:00,
2013-02-04 08:37:00,31.0,26.7,30.14,SE,140,0.0,0.0,84,0.00,BKN,,0.00,WeatherDisplay:10.37,2013-02-04 13:37:00,
2013-02-04 08:43:00,32.4,25.7,30.14,ESE,123,3.5,3.5,76,0.00,BKN,,0.00,WeatherDisplay:10.37,2013-02-04 13:43:00,
2013-02-04 08:48:00,33.5,24.8,30.14,ESE,119,0.0,0.0,70,0.00,BKN,,0.00,WeatherDisplay:10.37,2013-02-04 13:48:00,
2013-02-04 08:53:00,33.8,22.9,30.15,ENE,75,3.5,3.5,64,0.00,BKN,,0.00,WeatherDisplay:10.37,2013-02-04 13:53:00,
2013-02-04 08:58:00,34.0,22.3,30.15,ENE,66,3.5,3.5,62,0.00,BKN,,0.00,WeatherDisplay:10.37,2013-02-04 13:58:00,
2013-02-04 09:03:00,34.2,22.9,30.15,ENE,66,2.3,2.3,63,0.00,BKN,,0.00,WeatherDisplay:10.37,2013-02-04 14:03:00,
2013-02-04 09:08:00,34.5,23.6,30.16,ENE,65,0.0,0.0,64,0.00,BKN,,0.00,WeatherDisplay:10.37,2013-02-04 14:08:00,
2013-02-04 09:13:00,34.7,22.2,30.15,ENE,59,3.5,3.5,60,0.00,BKN,,0.00,WeatherDisplay:10.37,2013-02-04 14:13:00,
2013-02-04 09:18:00,35.0,23.3,30.15,NNE,30,3.5,3.5,62,0.00,BKN,,0.00,WeatherDisplay:10.37,2013-02-04 14:18:00,
2013-02-04 09:23:00,35.1,22.6,30.15,NNE,30,0.0,0.0,60,0.00,BKN,,0.00,WeatherDisplay:10.37,2013-02-04 14:23:00,
2013-02-04 09:28:00,35.3,22.4,30.16,NNE,30,2.3,2.3,59,0.00,BKN,,0.00,WeatherDisplay:10.37,2013-02-04 14:28:00,
2013-02-04 09:33:00,35.8,24.0,30.15,NNE,29,1.1,1.1,62,0.00,BKN,,0.00,WeatherDisplay:10.37,2013-02-04 14:33:00,
2013-02-04 09:38:00,35.9,22.5,30.16,WNW,302,3.5,3.5,58,0.00,BKN,,0.00,WeatherDisplay:10.37,2013-02-04 14:38:00,
2013-02-04 09:43:00,36.1,21.9,30.16,NW,310,5.8,5.8,56,0.00,BKN,,0.00,WeatherDisplay:10.37,2013-02-04 14:43:00,
2013-02-04 09:48:00,36.8,23.8,30.16,NW,311,2.3,2.3,59,0.00,BKN,,0.00,WeatherDisplay:10.37,2013-02-04 14:48:00,
2013-02-04 09:53:00,36.6,23.2,30.15,West,273,4.6,4.6,58,0.00,BKN,,0.00,WeatherDisplay:10.37,2013-02-04 14:53:00,
2013-02-04 09:58:00,37.3,23.9,30.15,WNW,300,5.0,5.0,58,0.00,BKN,,0.00,WeatherDisplay:10.37,2013-02-04 14:58:00,
2013-02-04 10:03:00,37.3,22.6,30.15,NW,317,10.4,10.4,55,0.00,OVC,,0.00,WeatherDisplay:10.37,2013-02-04 15:03:00,
2013-02-04 10:09:00,37.3,22.6,30.15,NW,304,4.6,4.6,55,0.00,OVC,,0.00,WeatherDisplay:10.37,2013-02-04 15:09:00,
2013-02-04 10:14:00,38.3,24.0,30.15,NW,314,5.8,5.8,56,0.00,OVC,,0.00,WeatherDisplay:10.37,2013-02-04 15:14:00,
2013-02-04 10:19:00,37.7,21.6,30.14,NW,307,4.6,4.6,52,0.00,OVC,,0.00,WeatherDisplay:10.37,2013-02-04 15:19:00,
2013-02-04 10:24:00,37.7,22.1,30.14,NW,311,4.6,4.6,53,0.00,OVC,,0.00,WeatherDisplay:10.37,2013-02-04 15:24:00,
2013-02-04 10:29:00,38.4,23.6,30.15,NW,319,7.0,7.0,55,0.00,OVC,,0.00,WeatherDisplay:10.37,2013-02-04 15:29:00,
2013-02-04 10:34:00,38.5,22.8,30.15,WNW,292,9.2,9.2,53,0.00,OVC,,0.00,WeatherDisplay:10.37,2013-02-04 15:34:00,
2013-02-04 10:39:00,38.6,22.0,30.15,NW,311,3.5,3.5,51,0.00,OVC,,0.00,WeatherDisplay:10.37,2013-02-04 15:39:00,
2013-02-04 10:44:00,38.8,22.7,30.15,NNW,346,3.5,3.5,52,0.00,OVC,,0.00,WeatherDisplay:10.37,2013-02-04 15:44:00,
2013-02-04 10:49:00,38.9,22.8,30.15,NNW,329,3.5,3.5,52,0.00,OVC,,0.00,WeatherDisplay:10.37,2013-02-04 15:49:00,
2013-02-04 10:54:00,38.5,22.4,30.15,WNW,300,3.0,3.0,52,0.00,OVC,,0.00,WeatherDisplay:10.37,2013-02-04 15:54:00,
2013-02-04 10:59:00,38.7,22.1,30.16,West,268,4.0,4.0,51,0.00,OVC,,0.00,WeatherDisplay:10.37,2013-02-04 15:59:00,
2013-02-04 11:04:00,38.5,21.5,30.16,West,269,4.6,4.6,50,0.00,BKN,,0.00,WeatherDisplay:10.37,2013-02-04 16:04:00,
2013-02-04 11:09:00,39.0,21.9,30.16,NW,307,6.9,6.9,50,0.00,BKN,,0.00,WeatherDisplay:10.37,2013-02-04 16:09:00,
2013-02-04 11:14:00,39.2,21.6,30.16,West,263,6.0,6.0,49,0.00,BKN,,0.00,WeatherDisplay:10.37,2013-02-04 16:14:00,
2013-02-04 11:20:00,39.9,22.7,30.15,WNW,291,9.2,9.2,50,0.00,BKN,,0.00,WeatherDisplay:10.37,2013-02-04 16:20:00,
2013-02-04 11:25:00,39.8,21.7,30.16,West,263,12.0,12.0,48,0.00,BKN,,0.00,WeatherDisplay:10.37,2013-02-04 16:25:00,
2013-02-04 11:30:00,39.5,20.9,30.16,West,263,6.9,6.9,47,0.00,BKN,,0.00,WeatherDisplay:10.37,2013-02-04 16:30:00,
2013-02-04 11:35:00,39.9,21.8,30.15,WSW,254,5.8,5.8,48,0.00,BKN,,0.00,WeatherDisplay:10.37,2013-02-04 16:35:00,
2013-02-04 11:40:00,40.6,21.4,30.15,WSW,254,4.0,4.0,46,0.00,BKN,,0.00,WeatherDisplay:10.37,2013-02-04 16:40:00,
2013-02-04 11:45:00,40.2,20.5,30.14,WSW,255,4.6,4.6,45,0.00,BKN,,0.00,WeatherDisplay:10.37,2013-02-04 16:45:00,
2013-02-04 11:50:00,40.2,20.5,30.14,NW,304,5.8,5.8,45,0.00,BKN,,0.00,WeatherDisplay:10.37,2013-02-04 16:50:00,
2013-02-04 11:55:00,40.6,20.4,30.13,WSW,240,11.5,11.5,44,0.00,BKN,,0.00,WeatherDisplay:10.37,2013-02-04 16:55:00,
2013-02-04 12:00:00,40.6,21.9,30.13,WSW,238,9.0,9.0,47,0.00,BKN,,0.00,WeatherDisplay:10.37,2013-02-04 17:00:00,
2013-02-04 12:05:00,41.5,20.6,30.14,WSW,240,10.4,10.4,43,0.00,BKN,,0.00,WeatherDisplay:10.37,2013-02-04 17:05:00,
2013-02-04 12:10:00,41.2,20.4,30.13,West,267,11.5,11.5,43,0.00,BKN,,0.00,WeatherDisplay:10.37,2013-02-04 17:10:00,
2013-02-04 12:15:00,41.3,21.0,30.12,WSW,252,4.6,4.6,44,0.00,BKN,,0.00,WeatherDisplay:10.37,2013-02-04 17:15:00,
2013-02-04 12:20:00,41.6,20.7,30.12,SW,219,7.0,7.0,43,0.00,BKN,,0.00,WeatherDisplay:10.37,2013-02-04 17:20:00,
2013-02-04 12:25:00,41.4,20.5,30.12,WNW,294,4.6,4.6,43,0.00,BKN,,0.00,WeatherDisplay:10.37,2013-02-04 17:25:00,
2013-02-04 12:30:00,41.7,22.9,30.12,West,274,10.4,10.4,47,0.00,BKN,,0.00,WeatherDisplay:10.37,2013-02-04 17:30:00,
2013-02-04 12:35:00,41.8,22.0,30.12,SSW,211,9.0,9.0,45,0.00,BKN,,0.00,WeatherDisplay:10.37,2013-02-04 17:35:00,
2013-02-04 12:40:00,41.7,21.4,30.11,WSW,240,4.0,4.0,44,0.00,BKN,,0.00,WeatherDisplay:10.37,2013-02-04 17:40:00,
2013-02-04 12:45:00,42.8,21.8,30.11,West,279,5.8,5.8,43,0.00,BKN,,0.00,WeatherDisplay:10.37,2013-02-04 17:45:00,
2013-02-04 12:50:00,43.2,21.6,30.11,WSW,245,11.5,11.5,42,0.00,BKN,,0.00,WeatherDisplay:10.37,2013-02-04 17:50:00,
2013-02-04 12:55:00,43.6,22.0,30.12,WSW,246,9.0,9.0,42,0.00,BKN,,0.00,WeatherDisplay:10.37,2013-02-04 17:55:00,
2013-02-04 13:00:00,43.8,23.3,30.11,SW,232,6.0,6.0,44,0.00,BKN,,0.00,WeatherDisplay:10.37,2013-02-04 18:00:00,
2013-02-04 13:05:00,43.8,22.2,30.11,SW,215,6.9,6.9,42,0.00,BKN,,0.00,WeatherDisplay:10.37,2013-02-04 18:05:00,
2013-02-04 13:10:00,44.9,23.2,30.10,WSW,245,9.0,9.0,42,0.00,BKN,,0.00,WeatherDisplay:10.37,2013-02-04 18:10:00,
2013-02-04 13:15:00,44.7,22.4,30.10,SSW,202,8.0,8.0,41,0.00,BKN,,0.00,WeatherDisplay:10.37,2013-02-04 18:15:00,
2013-02-04 13:20:00,44.2,21.4,30.09,SW,229,6.9,6.9,40,0.00,BKN,,0.00,WeatherDisplay:10.37,2013-02-04 18:20:00,
2013-02-04 13:25:00,45.2,22.9,30.09,WSW,256,10.0,10.0,41,0.00,BKN,,0.00,WeatherDisplay:10.37,2013-02-04 18:25:00,
2013-02-04 13:30:00,45.6,23.2,30.08,SSW,213,6.0,6.0,41,0.00,BKN,,0.00,WeatherDisplay:10.37,2013-02-04 18:30:00,
2013-02-04 13:35:00,44.9,21.4,30.08,SW,217,5.8,5.8,39,0.00,BKN,,0.00,WeatherDisplay:10.37,2013-02-04 18:35:00,
2013-02-04 13:40:00,44.7,20.6,30.08,SSW,205,1.1,1.1,38,0.00,BKN,,0.00,WeatherDisplay:10.37,2013-02-04 18:40:00,
2013-02-04 13:46:00,45.7,23.3,30.08,NW,312,3.0,3.0,41,0.00,BKN,,0.00,WeatherDisplay:10.37,2013-02-04 18:46:00,
2013-02-04 13:51:00,46.2,22.0,30.07,NW,313,3.5,3.5,38,0.00,BKN,,0.00,WeatherDisplay:10.37,2013-02-04 18:51:00,
2013-02-04 13:56:00,46.1,21.9,30.08,West,279,6.9,6.9,38,0.00,BKN,,0.00,WeatherDisplay:10.37,2013-02-04 18:56:00,
2013-02-04 14:01:00,45.6,22.6,30.07,SW,218,6.0,6.0,40,0.00,BKN,,0.00,WeatherDisplay:10.37,2013-02-04 19:01:00,
2013-02-04 14:06:00,46.0,23.0,30.07,SSW,213,9.0,9.0,40,0.00,BKN,,0.00,WeatherDisplay:10.37,2013-02-04 19:06:00,
2013-02-04 14:11:00,46.6,22.9,30.07,SW,225,4.6,4.6,39,0.00,BKN,,0.00,WeatherDisplay:10.37,2013-02-04 19:11:00,
2013-02-04 14:16:00,46.8,21.9,30.07,SSW,197,7.0,7.0,37,0.00,BKN,,0.00,WeatherDisplay:10.37,2013-02-04 19:16:00,
2013-02-04 14:21:00,47.4,23.7,30.07,West,275,1.1,1.1,39,0.00,BKN,,0.00,WeatherDisplay:10.37,2013-02-04 19:21:00,
2013-02-04 14:26:00,47.2,22.9,30.07,SSW,213,11.5,11.5,38,0.00,BKN,,0.00,WeatherDisplay:10.37,2013-02-04 19:26:00,
2013-02-04 14:31:00,46.0,21.1,30.07,WSW,238,4.6,4.6,37,0.00,BKN,,0.00,WeatherDisplay:10.37,2013-02-04 19:31:00,
2013-02-04 14:36:00,45.8,22.2,30.07,WSW,238,1.1,0.0,39,0.00,BKN,,0.00,WeatherDisplay:10.37,2013-02-04 19:36:00,
2013-02-04 14:41:00,46.0,22.4,30.07,West,262,4.6,4.6,39,0.00,BKN,,0.00,WeatherDisplay:10.37,2013-02-04 19:41:00,
2013-02-04 14:46:00,46.2,22.0,30.07,SW,217,3.5,3.5,38,0.00,BKN,,0.00,WeatherDisplay:10.37,2013-02-04 19:46:00,
2013-02-04 14:51:00,46.5,22.2,30.07,SSW,209,5.0,5.0,38,0.00,BKN,,0.00,WeatherDisplay:10.37,2013-02-04 19:51:00,
2013-02-04 14:56:00,46.5,22.2,30.06,SSW,209,11.5,11.5,38,0.00,BKN,,0.00,WeatherDisplay:10.37,2013-02-04 19:56:00,
2013-02-04 15:01:00,46.5,23.4,30.07,South,184,9.0,9.0,40,0.00,BKN,,0.00,WeatherDisplay:10.37,2013-02-04 20:01:00,
2013-02-04 15:06:00,46.8,22.5,30.07,SSW,213,9.2,9.2,38,0.00,BKN,,0.00,WeatherDisplay:10.37,2013-02-04 20:06:00,
2013-02-04 15:11:00,47.1,24.0,30.07,SSW,202,5.8,5.8,40,0.00,BKN,,0.00,WeatherDisplay:10.37,2013-02-04 20:11:00,
2013-02-04 15:16:00,47.0,22.7,30.07,SW,218,7.0,7.0,38,0.00,BKN,,0.00,WeatherDisplay:10.37,2013-02-04 20:16:00,
2013-02-04 15:21:00,47.0,22.7,30.06,SSE,158,5.8,5.8,38,0.00,BKN,,0.00,WeatherDisplay:10.37,2013-02-04 20:21:00,
2013-02-04 15:26:00,47.0,23.3,30.06,SSW,202,11.5,11.5,39,0.00,BKN,,0.00,WeatherDisplay:10.37,2013-02-04 20:26:00,
2013-02-04 15:31:00,47.3,22.9,30.06,WSW,257,9.2,9.2,38,0.00,BKN,,0.00,WeatherDisplay:10.37,2013-02-04 20:31:00,
2013-02-04 15:36:00,47.4,23.0,30.06,SW,231,7.0,7.0,38,0.00,BKN,,0.00,WeatherDisplay:10.37,2013-02-04 20:36:00,
2013-02-04 15:41:00,47.4,23.0,30.06,SSW,210,7.0,7.0,38,0.00,BKN,,0.00,WeatherDisplay:10.37,2013-02-04 20:41:00,
2013-02-04 15:46:00,47.2,22.9,30.06,SSW,195,6.9,6.9,38,0.00,BKN,,0.00,WeatherDisplay:10.37,2013-02-04 20:46:00,
2013-02-04 15:51:00,47.5,23.1,30.06,SW,236,10.0,10.0,38,0.00,BKN,,0.00,WeatherDisplay:10.37,2013-02-04 20:51:00,
2013-02-04 15:56:00,46.9,22.6,30.05,SW,221,7.0,7.0,38,0.00,BKN,,0.00,WeatherDisplay:10.37,2013-02-04 20:56:00,
2013-02-04 16:01:00,46.4,22.8,30.05,SSW,212,6.9,6.9,39,0.00,BKN,,0.00,WeatherDisplay:10.37,2013-02-04 21:01:00,
2013-02-04 16:06:00,46.3,22.7,30.05,SSW,199,6.0,6.0,39,0.00,BKN,,0.00,WeatherDisplay:10.37,2013-02-04 21:06:00,
2013-02-04 16:11:00,46.2,22.6,30.05,SSW,208,7.0,7.0,39,0.00,BKN,,0.00,WeatherDisplay:10.37,2013-02-04 21:11:00,
2013-02-04 16:16:00,46.3,24.4,30.05,SSW,211,3.5,3.5,42,0.00,BKN,,0.00,WeatherDisplay:10.37,2013-02-04 21:16:00,
2013-02-04 16:21:00,46.2,23.2,30.05,SSW,199,10.4,10.4,40,0.00,BKN,,0.00,WeatherDisplay:10.37,2013-02-04 21:21:00,
2013-02-04 16:27:00,46.1,23.1,30.05,SW,215,8.1,8.1,40,0.00,BKN,,0.00,WeatherDisplay:10.37,2013-02-04 21:27:00,
2013-02-04 16:32:00,45.9,22.9,30.05,SSW,208,10.4,10.4,40,0.00,BKN,,0.00,WeatherDisplay:10.37,2013-02-04 21:32:00,
2013-02-04 16:37:00,45.7,23.3,30.04,SSW,199,8.1,8.1,41,0.00,BKN,,0.00,WeatherDisplay:10.37,2013-02-04 21:37:00,
2013-02-04 16:42:00,45.6,23.8,30.04,SSW,202,9.2,9.2,42,0.00,BKN,,0.00,WeatherDisplay:10.37,2013-02-04 21:42:00,
2013-02-04 16:47:00,45.4,24.2,30.04,South,188,6.0,6.0,43,0.00,BKN,,0.00,WeatherDisplay:10.37,2013-02-04 21:47:00,
2013-02-04 16:52:00,45.3,23.5,30.03,SW,223,9.2,9.2,42,0.00,BKN,,0.00,WeatherDisplay:10.37,2013-02-04 21:52:00,
2013-02-04 16:57:00,45.3,23.5,30.03,South,188,5.8,5.8,42,0.00,BKN,,0.00,WeatherDisplay:10.37,2013-02-04 21:57:00,
2013-02-04 17:02:00,45.2,24.0,30.03,SSW,207,4.0,4.0,43,0.00,OVC,,0.00,WeatherDisplay:10.37,2013-02-04 22:02:00,
2013-02-04 17:07:00,45.1,25.0,30.03,SSW,207,3.5,3.5,45,0.00,OVC,,0.00,WeatherDisplay:10.37,2013-02-04 22:07:00,
2013-02-04 17:12:00,44.9,24.3,30.03,SSW,207,3.5,3.5,44,0.00,OVC,,0.00,WeatherDisplay:10.37,2013-02-04 22:12:00,
2013-02-04 17:17:00,44.5,25.0,30.03,SSW,206,4.6,4.6,46,0.00,OVC,,0.00,WeatherDisplay:10.37,2013-02-04 22:17:00,
2013-02-04 17:22:00,44.1,25.6,30.02,SSW,206,4.6,4.6,48,0.00,OVC,,0.00,WeatherDisplay:10.37,2013-02-04 22:22:00,
2013-02-04 17:27:00,43.9,24.9,30.02,SSW,206,3.5,3.5,47,0.00,OVC,,0.00,WeatherDisplay:10.37,2013-02-04 22:27:00,
2013-02-04 17:32:00,43.4,25.5,30.02,SSW,206,1.1,1.1,49,0.00,OVC,,0.00,WeatherDisplay:10.37,2013-02-04 22:32:00,
2013-02-04 17:37:00,43.2,24.8,30.02,SSW,206,3.5,3.5,48,0.00,OVC,,0.00,WeatherDisplay:10.37,2013-02-04 22:37:00,
2013-02-04 17:42:00,43.2,24.8,30.02,SSW,206,4.0,4.0,48,0.00,OVC,,0.00,WeatherDisplay:10.37,2013-02-04 22:42:00,
2013-02-04 17:48:00,43.2,24.8,30.02,South,191,5.8,5.8,48,0.00,OVC,,0.00,WeatherDisplay:10.37,2013-02-04 22:48:00,
2013-02-04 17:53:00,43.0,25.1,30.02,South,189,4.0,4.0,49,0.00,OVC,,0.00,WeatherDisplay:10.37,2013-02-04 22:53:00,
2013-02-04 17:58:00,42.9,25.0,30.02,SSW,205,7.0,7.0,49,0.00,OVC,,0.00,WeatherDisplay:10.37,2013-02-04 22:58:00,
2013-02-04 18:03:00,43.0,25.1,30.02,South,182,8.1,8.1,49,0.00,OVC,,0.00,WeatherDisplay:10.37,2013-02-04 23:03:00,
2013-02-04 18:08:00,43.2,25.3,30.03,SSW,195,4.0,4.0,49,0.00,OVC,,0.00,WeatherDisplay:10.37,2013-02-04 23:08:00,
2013-02-04 18:13:00,43.3,24.9,30.03,SSW,203,3.5,3.5,48,0.00,OVC,,0.00,WeatherDisplay:10.37,2013-02-04 23:13:00,
2013-02-04 18:18:00,43.4,25.0,30.03,SSW,205,4.0,4.0,48,0.00,OVC,,0.00,WeatherDisplay:10.37,2013-02-04 23:18:00,
2013-02-04 18:23:00,43.2,25.3,30.03,South,186,3.5,3.5,49,0.00,OVC,,0.00,WeatherDisplay:10.37,2013-02-04 23:23:00,
2013-02-04 18:28:00,43.0,25.6,30.03,SSW,202,5.0,5.0,50,0.00,OVC,,0.00,WeatherDisplay:10.37,2013-02-04 23:28:00,
2013-02-04 18:33:00,42.9,25.5,30.03,SSW,194,6.9,6.9,50,0.00,OVC,,0.00,WeatherDisplay:10.37,2013-02-04 23:33:00,
2013-02-04 18:38:00,42.9,25.0,30.03,SSW,198,5.8,5.8,49,0.00,OVC,,0.00,WeatherDisplay:10.37,2013-02-04 23:38:00,
2013-02-04 18:43:00,43.0,25.6,30.03,South,191,3.5,3.5,50,0.00,OVC,,0.00,WeatherDisplay:10.37,2013-02-04 23:43:00,
2013-02-04 18:48:00,42.7,25.8,30.03,South,191,6.0,6.0,51,0.00,OVC,,0.00,WeatherDisplay:10.37,2013-02-04 23:48:00,
2013-02-04 18:53:00,42.8,25.4,30.03,SSW,204,4.6,4.6,50,0.00,OVC,,0.00,WeatherDisplay:10.37,2013-02-04 23:53:00,
2013-02-04 18:58:00,42.8,25.4,30.03,South,190,6.9,6.9,50,0.00,OVC,,0.00,WeatherDisplay:10.37,2013-02-04 23:58:00,
2013-02-04 19:03:00,42.8,25.9,30.02,South,188,4.0,4.0,51,0.00,OVC,,0.00,WeatherDisplay:10.37,2013-02-05 00:03:00,
2013-02-04 19:08:00,42.6,25.7,30.02,South,190,5.0,5.0,51,0.00,OVC,,0.00,WeatherDisplay:10.37,2013-02-05 00:08:00,
2013-02-04 19:13:00,42.6,25.7,30.03,SSW,197,4.0,4.0,51,0.00,OVC,,0.00,WeatherDisplay:10.37,2013-02-05 00:13:00,
2013-02-04 19:18:00,42.7,25.3,30.03,SSW,210,3.5,3.5,50,0.00,OVC,,0.00,WeatherDisplay:10.37,2013-02-05 00:18:00,
2013-02-04 19:23:00,42.8,25.4,30.03,South,191,5.8,5.8,50,0.00,OVC,,0.00,WeatherDisplay:10.37,2013-02-05 00:23:00,
2013-02-04 19:28:00,42.7,25.3,30.03,SSW,200,4.6,4.6,50,0.00,OVC,,0.00,WeatherDisplay:10.37,2013-02-05 00:28:00,
2013-02-04 19:33:00,42.7,25.3,30.03,SSW,206,8.1,8.1,50,0.00,OVC,,0.00,WeatherDisplay:10.37,2013-02-05 00:33:00,
2013-02-04 19:38:00,42.6,26.2,30.03,SW,225,9.0,9.0,52,0.00,OVC,,0.00,WeatherDisplay:10.37,2013-02-05 00:38:00,
2013-02-04 19:43:00,42.6,25.7,30.04,SSW,210,12.0,12.0,51,0.00,OVC,,0.00,WeatherDisplay:10.37,2013-02-05 00:43:00,
2013-02-04 19:48:00,42.6,25.7,30.04,SSW,199,7.0,7.0,51,0.00,OVC,,0.00,WeatherDisplay:10.37,2013-02-05 00:48:00,
2013-02-04 19:53:00,42.5,25.6,30.04,SW,221,11.5,11.5,51,0.00,OVC,,0.00,WeatherDisplay:10.37,2013-02-05 00:53:00,
2013-02-04 19:58:00,42.4,26.0,30.03,South,178,9.2,9.2,52,0.00,OVC,,0.00,WeatherDisplay:10.37,2013-02-05 00:58:00,
2013-02-04 20:03:00,42.2,25.8,30.03,SSW,209,9.2,9.2,52,0.00,OVC,,0.00,WeatherDisplay:10.37,2013-02-05 01:03:00,
2013-02-04 20:08:00,41.9,26.0,30.03,SW,215,10.4,10.4,53,0.00,OVC,,0.00,WeatherDisplay:10.37,2013-02-05 01:08:00,
2013-02-04 20:14:00,41.6,25.7,30.03,SSW,201,4.6,4.6,53,0.00,OVC,,0.00,WeatherDisplay:10.37,2013-02-05 01:14:00,
2013-02-04 20:19:00,41.5,25.6,30.03,SSW,202,5.8,5.8,53,0.00,OVC,,0.00,WeatherDisplay:10.37,2013-02-05 01:19:00,
2013-02-04 20:24:00,41.2,25.8,30.03,SSW,205,5.8,5.8,54,0.00,OVC,,0.00,WeatherDisplay:10.37,2013-02-05 01:24:00,
2013-02-04 20:29:00,40.4,25.5,30.03,SSW,195,4.6,4.6,55,0.00,OVC,,0.00,WeatherDisplay:10.37,2013-02-05 01:29:00,
2013-02-04 20:34:00,40.1,25.6,30.02,SSW,194,6.0,6.0,56,0.00,OVC,,0.00,WeatherDisplay:10.37,2013-02-05 01:34:00,
2013-02-04 20:39:00,40.1,25.6,30.03,SSW,194,4.6,4.6,56,0.00,OVC,,0.00,WeatherDisplay:10.37,2013-02-05 01:39:00,
2013-02-04 20:44:00,39.8,25.8,30.03,SW,217,3.5,3.5,57,0.00,OVC,,0.00,WeatherDisplay:10.37,2013-02-05 01:44:00,
2013-02-04 20:49:00,39.6,26.0,30.03,SSW,194,3.5,3.5,58,0.00,OVC,,0.00,WeatherDisplay:10.37,2013-02-05 01:49:00,
2013-02-04 20:54:00,39.6,26.0,30.03,SSW,210,6.0,6.0,58,0.00,OVC,,0.00,WeatherDisplay:10.37,2013-02-05 01:54:00,
2013-02-04 20:59:00,39.7,26.1,30.03,South,190,8.1,8.1,58,0.00,OVC,,0.00,WeatherDisplay:10.37,2013-02-05 01:59:00,
2013-02-04 21:04:00,40.3,25.8,30.03,SSW,200,10.4,10.4,56,0.00,BKN,,0.00,WeatherDisplay:10.37,2013-02-05 02:04:00,
2013-02-04 21:09:00,40.8,26.3,30.03,SSW,199,10.4,10.4,56,0.00,BKN,,0.00,WeatherDisplay:10.37,2013-02-05 02:09:00,
2013-02-04 21:14:00,41.0,26.1,30.02,SSW,196,8.1,8.1,55,0.00,BKN,,0.00,WeatherDisplay:10.37,2013-02-05 02:14:00,
2013-02-04 21:19:00,40.9,26.0,30.02,SSW,205,9.2,9.2,55,0.00,BKN,,0.00,WeatherDisplay:10.37,2013-02-05 02:19:00,
2013-02-04 21:24:00,40.9,26.0,30.02,SSW,202,11.0,11.0,55,0.00,BKN,,0.00,WeatherDisplay:10.37,2013-02-05 02:24:00,
2013-02-04 21:29:00,40.8,25.9,30.02,South,182,8.1,8.1,55,0.00,BKN,,0.00,WeatherDisplay:10.37,2013-02-05 02:29:00,
2013-02-04 21:34:00,40.8,25.9,30.02,SSW,213,6.0,6.0,55,0.00,BKN,,0.00,WeatherDisplay:10.37,2013-02-05 02:34:00,
2013-02-04 21:39:00,40.7,26.2,30.02,SSW,200,5.0,5.0,56,0.00,BKN,,0.00,WeatherDisplay:10.37,2013-02-05 02:39:00,
2013-02-04 21:44:00,40.4,25.9,30.02,SSW,196,4.6,4.6,56,0.00,BKN,,0.00,WeatherDisplay:10.37,2013-02-05 02:44:00,
2013-02-04 21:49:00,40.5,26.0,30.02,SSW,203,13.8,13.8,56,0.00,BKN,,0.00,WeatherDisplay:10.37,2013-02-05 02:49:00,
2013-02-04 21:54:00,40.7,26.2,30.02,South,180,10.4,10.4,56,0.00,BKN,,0.00,WeatherDisplay:10.37,2013-02-05 02:54:00,
2013-02-04 21:59:00,40.6,26.1,30.02,SSW,195,4.6,4.6,56,0.00,BKN,,0.00,WeatherDisplay:10.37,2013-02-05 02:59:00,
2013-02-04 22:04:00,40.4,26.4,30.02,SSW,208,5.8,5.8,57,0.00,BKN,,0.00,WeatherDisplay:10.37,2013-02-05 03:04:00,
2013-02-04 22:09:00,40.2,26.2,30.02,SSW,213,8.1,8.1,57,0.00,BKN,,0.00,WeatherDisplay:10.37,2013-02-05 03:09:00,
2013-02-04 22:14:00,40.2,26.2,30.02,SSW,202,7.0,7.0,57,0.00,BKN,,0.00,WeatherDisplay:10.37,2013-02-05 03:14:00,
2013-02-04 22:19:00,40.3,26.3,30.02,SSW,202,6.0,6.0,57,0.00,BKN,,0.00,WeatherDisplay:10.37,2013-02-05 03:19:00,
2013-02-04 22:24:00,40.2,26.6,30.02,SSW,202,5.8,5.8,58,0.00,BKN,,0.00,WeatherDisplay:10.37,2013-02-05 03:24:00,
2013-02-04 22:30:00,40.0,26.4,30.02,SSW,209,7.0,7.0,58,0.00,BKN,,0.00,WeatherDisplay:10.37,2013-02-05 03:30:00,
2013-02-04 22:35:00,40.0,26.4,30.02,SSW,208,7.0,7.0,58,0.00,BKN,,0.00,WeatherDisplay:10.37,2013-02-05 03:35:00,
2013-02-04 22:40:00,40.2,26.6,30.02,SW,217,6.0,6.0,58,0.00,BKN,,0.00,WeatherDisplay:10.37,2013-02-05 03:40:00,
2013-02-04 22:45:00,40.0,26.8,30.01,SSW,192,9.2,9.2,59,0.00,BKN,,0.00,WeatherDisplay:10.37,2013-02-05 03:45:00,
2013-02-04 22:50:00,40.0,26.8,30.01,SSW,211,6.9,6.9,59,0.00,BKN,,0.00,WeatherDisplay:10.37,2013-02-05 03:50:00,
2013-02-04 22:55:00,40.0,26.8,30.02,SSW,206,9.0,9.0,59,0.00,BKN,,0.00,WeatherDisplay:10.37,2013-02-05 03:55:00,
2013-02-04 23:00:00,40.1,26.9,30.01,SW,226,9.2,9.2,59,0.00,BKN,,0.00,WeatherDisplay:10.37,2013-02-05 04:00:00,
2013-02-04 23:05:00,40.1,26.9,30.01,SW,227,8.1,8.1,59,0.00,FEW,,0.00,WeatherDisplay:10.37,2013-02-05 04:05:00,
2013-02-04 23:10:00,40.0,26.8,30.01,SSW,204,9.2,9.2,59,0.00,FEW,,0.00,WeatherDisplay:10.37,2013-02-05 04:10:00,
2013-02-04 23:15:00,40.0,27.2,30.01,SSW,213,9.2,9.2,60,0.00,FEW,,0.00,WeatherDisplay:10.37,2013-02-05 04:15:00,
2013-02-04 23:20:00,40.2,27.4,30.01,SSW,196,6.9,6.9,60,0.00,FEW,,0.00,WeatherDisplay:10.37,2013-02-05 04:20:00,
2013-02-04 23:25:00,40.1,27.3,30.02,SW,215,10.4,10.4,60,0.00,FEW,,0.00,WeatherDisplay:10.37,2013-02-05 04:25:00,
2013-02-04 23:30:00,40.4,27.6,30.02,SSW,210,8.1,8.1,60,0.00,FEW,,0.00,WeatherDisplay:10.37,2013-02-05 04:30:00,
2013-02-04 23:35:00,40.2,27.4,30.02,SSW,200,6.0,6.0,60,0.00,FEW,,0.00,WeatherDisplay:10.37,2013-02-05 04:35:00,
2013-02-04 23:40:00,40.2,27.4,30.02,SW,216,6.0,6.0,60,0.00,FEW,,0.00,WeatherDisplay:10.37,2013-02-05 04:40:00,
2013-02-04 23:45:00,40.4,28.4,30.01,SSW,211,11.5,11.5,62,0.00,FEW,,0.00,WeatherDisplay:10.37,2013-02-05 04:45:00,
2013-02-04 23:50:00,40.4,28.4,30.01,SSW,196,8.0,8.0,62,0.00,FEW,,0.00,WeatherDisplay:10.37,2013-02-05 04:50:00,
2013-02-04 23:55:00,40.5,27.7,30.00,SSW,207,11.5,11.5,60,0.00,FEW,,0.00,WeatherDisplay:10.37,2013-02-05 04:55:00,